KLPR

Lorain County Regional Airport

Lorain/Elyria, Ohio, USA
METAR KLPR 150253Z AUTO 24004KT 9SM CLR 19/16 A2999 RMK AO2 SLP149 T01940156 51006 TSNO
Observed Flight Rules
Aug-15 @ 02:53 UTC (44 minutes ago) Visual Flight Rules
Wind Visibility Clouds
240° at 4 knots 9 miles
  • Clear skies
Temperatures Readings
Current 19°C / 66°F
Dewpoint 16°C / 61°F
Humidity 83%
Altimeter 29.99" Hg
Pressure 1014.9 hPa
Elevation 241
METAR KLPR 150253Z AUTO 24004KT 9SM CLR 19/16 A2999 RMK AO2 SLP149 T01940156 51006 TSNO
Observed Flight Rules
Aug-15 @ 02:53 UTC
(44 minutes ago)
VFR
Wind Visibility
240° at 4 knots 9 miles
Clouds
  • Clear skies
Temperature Dewpoint
19°C / 66°F 16°C / 61°F
Humidity Altimeter Pressure
83% 29.99" Hg 1014.9 hPa